Time;durP1;ratioP1;P1;durP2;ratioP2;P2;SDS_P1;SDS_P2;PMS_P1;PMS_P2;Temp;Humidity;BMP_temperature;BMP_pressure;BME280_temperature;BME280_humidity;BME280_pressure;Samples;Min_cycle;Max_cycle;Signal;HPM_P1;HPM_P2
2022/01/04 00:00:23;;;;;;;18.57;7.05;;;;;;;7.07;93.36;99475.70;1657454;85;25940;-78
2022/01/04 00:02:51;;;;;;;19.80;9.35;;;;;;;7.08;93.51;99480.00;1664768;85;27009;-78
2022/01/04 00:05:17;;;;;;;17.98;7.97;;;;;;;7.11;93.50;99476.14;1655912;86;25936;-78
2022/01/04 00:07:43;;;;;;;18.77;8.03;;;;;;;7.13;93.53;99469.61;1658406;86;25805;-79
2022/01/04 00:10:10;;;;;;;15.83;7.05;;;;;;;7.13;93.43;99472.77;1661796;85;25867;-78
2022/01/04 00:15:23;;;;;;;19.17;6.65;;;;;;;7.16;93.35;99477.23;1655950;85;27580;-79
2022/01/04 00:17:49;;;;;;;16.17;6.67;;;;;;;7.14;93.18;99471.77;1656414;86;25860;-78
2022/01/04 00:20:16;;;;;;;19.95;7.72;;;;;;;7.13;93.22;99474.10;1658604;85;26317;-77
2022/01/04 00:22:42;;;;;;;14.60;6.42;;;;;;;7.14;93.21;99467.78;1657623;85;25854;-78
2022/01/04 00:25:08;;;;;;;15.20;6.62;;;;;;;7.13;93.11;99466.12;1658547;85;25765;-79
2022/01/04 00:27:35;;;;;;;16.52;6.47;;;;;;;7.12;93.11;99461.82;1654268;86;28278;-78
2022/01/04 00:30:01;;;;;;;17.65;6.00;;;;;;;7.11;93.14;99465.48;1655474;86;25348;-78
2022/01/04 00:32:27;;;;;;;15.72;7.22;;;;;;;7.09;92.77;99468.34;1673295;84;25851;-77
2022/01/04 00:34:54;;;;;;;14.98;6.28;;;;;;;7.08;92.85;99473.88;1654200;85;25990;-77
2022/01/04 00:37:20;;;;;;;17.98;5.55;;;;;;;7.05;92.73;99465.76;1698380;83;25305;-78
2022/01/04 00:39:46;;;;;;;15.75;5.97;;;;;;;7.05;92.76;99465.76;1663908;84;28714;-78
2022/01/04 00:42:12;;;;;;;12.93;5.20;;;;;;;7.05;92.64;99463.09;1627055;87;26656;-78
2022/01/04 00:44:39;;;;;;;14.53;5.75;;;;;;;7.02;92.50;99462.13;1641527;86;26376;-79
2022/01/04 00:47:08;;;;;;;14.35;5.40;;;;;;;7.01;92.55;99461.84;1638712;85;25855;-78
2022/01/04 00:49:33;;;;;;;12.68;5.03;;;;;;;7.00;92.40;99451.69;1629532;86;25835;-78
2022/01/04 00:52:01;;;;;;;16.45;6.37;;;;;;;6.98;92.36;99444.90;1643786;86;27448;-78
2022/01/04 00:54:27;;;;;;;20.10;6.17;;;;;;;6.94;92.09;99448.96;1636372;86;26123;-78
2022/01/04 00:56:53;;;;;;;14.65;5.67;;;;;;;6.92;92.17;99444.34;1639826;86;25831;-78
2022/01/04 00:59:20;;;;;;;16.87;5.60;;;;;;;6.89;92.13;99443.38;1627489;86;26081;-78
2022/01/04 01:01:46;;;;;;;12.70;5.00;;;;;;;6.85;91.98;99448.77;1642846;86;26513;-78
2022/01/04 01:04:13;;;;;;;8.95;4.47;;;;;;;6.80;91.98;99445.34;1643967;86;27477;-78
2022/01/04 01:06:40;;;;;;;13.05;5.42;;;;;;;6.76;92.04;99444.58;1656715;85;25872;-79
2022/01/04 01:09:06;;;;;;;16.10;5.62;;;;;;;6.74;92.00;99445.28;1693057;83;26468;-79
2022/01/04 01:11:32;;;;;;;18.25;4.97;;;;;;;6.70;92.00;99444.84;1686165;83;26531;-78
2022/01/04 01:13:59;;;;;;;10.58;5.12;;;;;;;6.68;92.07;99435.41;1682796;83;25807;-78
2022/01/04 01:16:25;;;;;;;16.55;5.95;;;;;;;6.67;91.88;99435.10;1688538;83;28080;-78
2022/01/04 01:18:52;;;;;;;11.30;4.47;;;;;;;6.61;91.75;99428.69;1653480;86;25822;-78
2022/01/04 01:21:18;;;;;;;14.75;4.90;;;;;;;6.58;91.83;99426.92;1689718;83;25293;-78
2022/01/04 01:23:44;;;;;;;12.37;5.33;;;;;;;6.56;91.79;99422.30;1685508;83;26988;-78
2022/01/04 01:26:10;;;;;;;16.05;5.42;;;;;;;6.54;91.81;99425.16;1681725;84;25760;-78
2022/01/04 01:28:38;;;;;;;12.25;4.33;;;;;;;6.49;91.71;99425.38;1685893;83;28378;-79
2022/01/04 01:31:05;;;;;;;12.88;5.35;;;;;;;6.43;91.59;99415.51;1655505;86;25933;-78
2022/01/04 01:33:31;;;;;;;13.85;5.35;;;;;;;6.38;91.73;99412.08;1638639;86;25849;-78
2022/01/04 01:35:58;;;;;;;11.63;5.10;;;;;;;6.39;91.73;99415.07;1658798;85;25786;-78
2022/01/04 01:38:25;;;;;;;16.37;5.05;;;;;;;6.38;91.73;99413.91;1656849;86;25852;-78
2022/01/04 01:40:53;;;;;;;11.55;4.40;;;;;;;6.34;91.56;99412.64;1658689;85;27534;-77
2022/01/04 01:43:20;;;;;;;8.63;3.77;;;;;;;6.29;91.75;99411.08;1656093;85;25929;-78
2022/01/04 01:45:46;;;;;;;14.33;4.03;;;;;;;6.26;91.92;99406.12;1655372;86;26532;-78
2022/01/04 01:48:13;;;;;;;11.85;4.70;;;;;;;6.23;92.01;99408.64;1658790;85;27113;-78
2022/01/04 01:50:40;;;;;;;10.53;4.78;;;;;;;6.20;92.20;99407.70;1657914;85;25945;-78
2022/01/04 01:53:06;;;;;;;16.02;5.00;;;;;;;6.19;92.43;99402.88;1663151;85;28702;-78
2022/01/04 01:55:33;;;;;;;14.40;4.70;;;;;;;6.22;92.67;99399.83;1658599;85;25972;-78
2022/01/04 01:58:00;;;;;;;19.35;5.75;;;;;;;6.23;92.81;99402.83;1655282;85;26012;-78
2022/01/04 02:00:28;;;;;;;11.20;4.75;;;;;;;6.23;92.86;99404.16;1658665;85;25915;-78
2022/01/04 02:02:55;;;;;;;13.68;5.55;;;;;;;6.23;92.85;99400.17;1652129;86;25857;-79
2022/01/04 02:05:22;;;;;;;12.82;5.08;;;;;;;6.26;92.88;99400.80;1656893;86;27459;-78
2022/01/04 02:07:48;;;;;;;12.98;4.40;;;;;;;6.25;92.72;99395.98;1636596;85;26333;-78
2022/01/04 02:10:15;;;;;;;11.97;4.72;;;;;;;6.22;92.54;99399.03;1653627;86;25774;-78
2022/01/04 02:12:46;;;;;;;14.90;5.25;;;;;;;6.19;92.39;99395.41;1650094;85;26526;-79
2022/01/04 02:15:19;;;;;;;13.45;5.00;;;;;;;6.15;92.35;99384.84;1655757;86;26567;-78
2022/01/04 02:17:47;;;;;;;11.95;5.30;;;;;;;6.10;92.30;99385.39;1655197;86;27542;-77
2022/01/04 02:20:15;;;;;;;8.78;4.15;;;;;;;6.05;92.28;99390.97;1655332;86;25853;-78
2022/01/04 02:22:43;;;;;;;14.47;5.08;;;;;;;6.01;92.38;99386.51;1659540;85;25342;-78
2022/01/04 02:25:10;;;;;;;12.88;4.87;;;;;;;5.96;92.36;99386.77;1658478;85;26560;-78
2022/01/04 02:27:39;;;;;;;19.10;5.03;;;;;;;5.94;92.44;99386.96;1656457;85;25885;-77
2022/01/04 02:30:10;;;;;;;10.15;5.00;;;;;;;5.95;92.56;99387.27;1657434;85;28274;-78
2022/01/04 02:32:36;;;;;;;11.65;5.37;;;;;;;5.94;92.50;99384.30;1649241;85;25809;-78
2022/01/04 02:35:04;;;;;;;12.23;5.45;;;;;;;5.94;92.48;99380.31;1606552;87;25816;-78
2022/01/04 02:37:32;;;;;;;13.03;5.05;;;;;;;5.94;92.41;99372.34;1605691;88;26547;-77
2022/01/04 02:39:59;;;;;;;9.10;4.65;;;;;;;5.91;92.23;99375.36;1629409;86;26178;-78
2022/01/04 02:42:25;;;;;;;11.90;5.22;;;;;;;5.88;92.10;99368.28;1640874;86;27495;-78
2022/01/04 02:44:52;;;;;;;13.93;5.28;;;;;;;5.86;91.99;99367.64;1599972;88;25903;-77
2022/01/04 02:47:19;;;;;;;13.40;5.10;;;;;;;5.82;91.98;99370.30;1638801;86;26303;-77
2022/01/04 02:49:45;;;;;;;11.55;5.95;;;;;;;5.77;91.89;99368.22;1601073;88;25879;-78
2022/01/04 02:52:12;;;;;;;12.07;5.17;;;;;;;5.74;91.87;99363.77;1627238;87;25919;-78
2022/01/04 02:54:38;;;;;;;12.28;4.80;;;;;;;5.70;91.88;99363.82;1637729;86;27452;-79
2022/01/04 02:57:04;;;;;;;14.25;5.53;;;;;;;5.69;92.07;99360.86;1625411;87;25900;-79
2022/01/04 02:59:31;;;;;;;12.78;5.62;;;;;;;5.66;92.02;99352.75;1644529;86;25992;-78
2022/01/04 03:01:57;;;;;;;13.48;6.28;;;;;;;5.64;92.01;99360.08;1611207;88;26006;-78
2022/01/04 03:04:23;;;;;;;14.05;5.35;;;;;;;5.65;92.02;99357.73;1636285;87;25885;-78
2022/01/04 03:06:49;;;;;;;15.68;6.08;;;;;;;5.60;91.86;99350.84;1614432;88;27507;-77
2022/01/04 03:09:16;;;;;;;18.65;6.58;;;;;;;5.59;91.83;99347.84;1636690;87;25828;-78
2022/01/04 03:11:42;;;;;;;14.60;6.12;;;;;;;5.55;91.69;99349.23;1629263;87;26034;-78
2022/01/04 03:14:08;;;;;;;17.65;6.28;;;;;;;5.51;91.64;99349.78;1657898;85;25835;-77
2022/01/04 03:16:35;;;;;;;15.90;6.20;;;;;;;5.45;91.56;99344.72;1665656;85;25803;-77
2022/01/04 03:19:03;;;;;;;14.30;6.95;;;;;;;5.42;91.75;99337.94;1665329;85;28387;-78
2022/01/04 03:21:30;;;;;;;13.58;5.90;;;;;;;5.42;91.72;99333.13;1655401;85;25817;-78
2022/01/04 03:23:57;;;;;;;15.15;5.90;;;;;;;5.39;91.73;99336.13;1629203;86;25941;-79
2022/01/04 03:26:24;;;;;;;16.27;6.83;;;;;;;5.36;91.79;99337.35;1631403;87;26590;-78
2022/01/04 03:28:51;;;;;;;14.90;5.90;;;;;;;5.30;91.83;99333.28;1633389;86;25771;-78
2022/01/04 03:31:17;;;;;;;9.93;5.58;;;;;;;5.26;91.97;99337.31;1654030;85;27460;-79
2022/01/04 03:33:43;;;;;;;15.95;6.62;;;;;;;5.22;92.13;99337.33;1672323;84;25801;-79
2022/01/04 03:36:09;;;;;;;21.55;6.60;;;;;;;5.20;92.28;99331.37;1685615;83;26575;-78
2022/01/04 03:38:36;;;;;;;16.17;7.45;;;;;;;5.19;92.59;99326.59;1682033;84;25794;-77
2022/01/04 03:41:02;;;;;;;15.70;6.72;;;;;;;5.18;92.68;99326.27;1681633;84;25817;-77
2022/01/04 03:43:30;;;;;;;16.20;6.35;;;;;;;5.19;92.77;99318.64;1654230;85;28179;-78
2022/01/04 03:45:56;;;;;;;18.60;7.33;;;;;;;5.20;92.80;99313.63;1628532;87;25798;-79
2022/01/04 03:48:23;;;;;;;13.15;6.42;;;;;;;5.21;92.67;99313.97;1640064;86;26525;-79
2022/01/04 03:50:49;;;;;;;15.40;6.97;;;;;;;5.19;92.46;99303.20;1647949;86;25947;-78
2022/01/04 03:53:15;;;;;;;14.13;7.33;;;;;;;5.17;92.52;99306.05;1630978;86;25915;-79
2022/01/04 03:55:41;;;;;;;17.95;7.37;;;;;;;5.16;92.21;99300.41;1645021;86;27544;-77
2022/01/04 03:58:08;;;;;;;20.82;8.88;;;;;;;5.13;92.18;99302.09;1642817;85;25825;-78
2022/01/04 04:00:34;;;;;;;14.60;7.42;;;;;;;5.12;92.08;99299.63;1640233;86;25852;-79
2022/01/04 04:03:00;;;;;;;16.85;7.87;;;;;;;5.05;91.93;99295.55;1631822;86;25927;-77
2022/01/04 04:05:26;;;;;;;20.60;8.85;;;;;;;5.04;91.98;99307.69;1645807;86;25826;-78
2022/01/04 04:07:52;;;;;;;17.77;7.97;;;;;;;4.99;92.07;99301.59;1685443;83;28314;-77
2022/01/04 04:10:19;;;;;;;17.95;8.40;;;;;;;4.96;92.16;99295.31;1682094;83;25857;-79
2022/01/04 04:12:45;;;;;;;15.28;8.30;;;;;;;4.96;92.25;99295.31;1658978;84;25831;-78
2022/01/04 04:15:11;;;;;;;17.40;8.20;;;;;;;4.93;92.37;99295.70;1633233;86;26550;-78
2022/01/04 04:17:38;;;;;;;20.30;8.20;;;;;;;4.93;92.47;99296.20;1637207;86;25815;-78
2022/01/04 04:20:06;;;;;;;15.85;7.25;;;;;;;4.90;92.50;99301.36;1637011;86;27816;-79
2022/01/04 04:22:32;;;;;;;18.65;7.45;;;;;;;4.91;92.67;99292.91;1636732;86;25902;-79
2022/01/04 04:24:59;;;;;;;15.80;7.12;;;;;;;4.92;92.87;99291.91;1636976;86;25799;-78
2022/01/04 04:27:25;;;;;;;21.85;9.03;;;;;;;4.93;92.85;99285.09;1631018;86;25813;-79
2022/01/04 04:29:51;;;;;;;16.57;7.50;;;;;;;4.91;92.79;99300.37;1637989;86;25884;-78
2022/01/04 04:32:17;;;;;;;15.65;7.25;;;;;;;4.91;92.84;99293.73;1634556;86;27439;-78
2022/01/04 04:34:43;;;;;;;13.85;7.20;;;;;;;4.88;92.95;99290.11;1646289;85;25923;-79
2022/01/04 04:37:10;;;;;;;17.10;7.00;;;;;;;4.89;93.00;99286.95;1690128;84;25880;-78
2022/01/04 04:39:36;;;;;;;18.62;8.48;;;;;;;4.89;93.12;99279.83;1693689;83;26326;-78
2022/01/04 04:42:03;;;;;;;17.42;7.70;;;;;;;4.89;93.41;99277.17;1690039;84;25944;-79
2022/01/04 04:44:29;;;;;;;15.35;6.75;;;;;;;4.90;93.72;99283.31;1707195;83;27462;-78
2022/01/04 04:46:56;;;;;;;19.45;7.30;;;;;;;4.94;94.31;99284.59;1696072;83;25828;-78
2022/01/04 04:49:22;;;;;;;15.30;7.25;;;;;;;4.98;95.01;99291.17;1697303;83;25313;-78
2022/01/04 04:51:48;;;;;;;16.75;7.20;;;;;;;5.03;95.42;99284.30;1668839;84;25809;-78
2022/01/04 04:54:15;;;;;;;18.10;6.97;;;;;;;5.08;96.27;99277.13;1696546;83;25898;-78
2022/01/04 04:56:41;;;;;;;15.88;7.45;;;;;;;5.13;96.78;99272.09;1694900;83;27468;-79
2022/01/04 04:59:09;;;;;;;20.43;7.87;;;;;;;5.17;96.76;99280.01;1690068;84;26445;-78
2022/01/04 05:01:36;;;;;;;17.35;7.12;;;;;;;5.19;96.69;99270.03;1696245;83;25798;-78
2022/01/04 05:04:03;;;;;;;16.02;7.25;;;;;;;5.22;96.58;99266.98;1697200;83;25997;-79
2022/01/04 05:06:29;;;;;;;18.15;8.40;;;;;;;5.24;96.47;99264.97;1695698;83;25889;-78
2022/01/04 05:08:55;;;;;;;18.17;8.48;;;;;;;5.24;96.40;99262.31;1693519;83;27544;-78
2022/01/04 05:11:22;;;;;;;14.43;7.25;;;;;;;5.25;96.35;99264.80;1691042;83;25768;-78
2022/01/04 05:13:48;;;;;;;13.58;7.95;;;;;;;5.27;96.26;99258.80;1693326;83;25770;-78
2022/01/04 05:16:14;;;;;;;16.67;8.03;;;;;;;5.30;96.16;99266.38;1665538;84;25764;-78
2022/01/04 05:18:40;;;;;;;16.93;8.35;;;;;;;5.30;95.98;99263.72;1695150;83;25998;-78
2022/01/04 05:21:06;;;;;;;17.85;9.03;;;;;;;5.32;95.87;99260.38;1666851;84;27441;-79
2022/01/04 05:23:33;;;;;;;15.50;7.12;;;;;;;5.32;95.64;99256.39;1693380;83;26500;-79
2022/01/04 05:25:59;;;;;;;13.32;7.25;;;;;;;5.31;95.51;99254.77;1693166;83;25739;-78
2022/01/04 05:28:25;;;;;;;17.62;8.08;;;;;;;5.32;95.31;99256.39;1695406;83;26495;-79
2022/01/04 05:30:51;;;;;;;16.25;7.47;;;;;;;5.30;95.25;99257.61;1694928;83;25910;-78
2022/01/04 05:33:18;;;;;;;15.98;7.55;;;;;;;5.30;95.23;99253.63;1658161;85;28277;-77
2022/01/04 05:35:44;;;;;;;18.25;7.85;;;;;;;5.28;95.21;99244.50;1655152;85;26478;-78
2022/01/04 05:38:10;;;;;;;16.48;8.25;;;;;;;5.29;95.26;99246.66;1658768;84;25788;-78
2022/01/04 05:40:38;;;;;;;17.15;8.68;;;;;;;5.30;95.18;99243.02;1670489;84;26550;-79
2022/01/04 05:43:04;;;;;;;21.02;9.08;;;;;;;5.30;95.18;99240.36;1667467;84;25408;-78
2022/01/04 05:45:31;;;;;;;18.17;9.75;;;;;;;5.31;95.22;99229.55;1661028;84;28382;-78
2022/01/04 05:47:58;;;;;;;22.42;10.28;;;;;;;5.30;95.24;99224.42;1659203;85;25621;-77
2022/01/04 05:50:24;;;;;;;18.40;9.30;;;;;;;5.30;95.17;99223.10;1656132;86;25970;-77
2022/01/04 05:52:50;;;;;;;14.00;7.70;;;;;;;5.30;95.10;99226.55;1657883;85;26198;-78
2022/01/04 05:55:16;;;;;;;16.67;7.97;;;;;;;5.29;94.89;99226.25;1657624;85;26517;-79
2022/01/04 05:57:43;;;;;;;15.83;7.40;;;;;;;5.27;94.75;99226.12;1668833;84;28065;-80
2022/01/04 06:00:10;;;;;;;14.90;7.47;;;;;;;5.26;94.77;99233.78;1679162;84;25991;-79
2022/01/04 06:02:38;;;;;;;14.18;7.90;;;;;;;5.23;94.89;99230.98;1644186;85;26804;-79
2022/01/04 06:05:05;;;;;;;13.90;7.60;;;;;;;5.22;95.31;99237.78;1650404;85;26526;-78
2022/01/04 06:07:31;;;;;;;14.20;8.25;;;;;;;5.22;95.81;99231.15;1674078;84;25923;-78
2022/01/04 06:09:57;;;;;;;13.13;7.33;;;;;;;5.23;96.11;99227.50;1648812;85;27460;-79
2022/01/04 06:15:04;;;;;;;18.98;7.78;;;;;;;5.20;96.05;99224.70;1673001;84;25930;-78
2022/01/04 06:17:38;;;;;;;21.25;8.80;;;;;;;5.20;96.09;99226.53;1653370;85;26568;-79
2022/01/04 06:20:12;;;;;;;21.82;8.85;;;;;;;5.19;95.95;99222.25;1655238;85;25910;-79
2022/01/04 06:22:39;;;;;;;17.32;10.30;;;;;;;5.16;95.90;99225.26;1656952;84;27451;-79
2022/01/04 06:25:10;;;;;;;18.25;9.93;;;;;;;5.14;95.95;99222.80;1642544;85;25784;-78
2022/01/04 06:27:37;;;;;;;20.82;10.38;;;;;;;5.13;95.97;99225.13;1696841;82;26130;-79
2022/01/04 06:30:05;;;;;;;20.40;9.85;;;;;;;5.13;95.98;99219.02;1697018;82;26451;-78
2022/01/04 06:32:32;;;;;;;21.02;10.93;;;;;;;5.11;96.01;99217.84;1698650;82;25918;-79
2022/01/04 06:34:58;;;;;;;20.75;11.18;;;;;;;5.12;96.13;99218.19;1685773;82;27429;-78
2022/01/04 06:37:24;;;;;;;18.82;10.08;;;;;;;5.13;96.06;99217.69;1683885;83;25783;-78
2022/01/04 06:39:50;;;;;;;21.55;11.30;;;;;;;5.12;96.06;99218.68;1683032;83;26772;-78
2022/01/04 06:42:17;;;;;;;21.73;11.50;;;;;;;5.10;96.14;99216.22;1681451;83;25915;-79
2022/01/04 06:44:43;;;;;;;19.20;9.78;;;;;;;5.10;96.33;99218.88;1684790;83;25969;-78
2022/01/04 06:47:10;;;;;;;15.48;9.50;;;;;;;5.10;96.55;99220.70;1683378;83;27516;-79
2022/01/04 06:49:38;;;;;;;17.62;9.45;;;;;;;5.11;96.74;99219.70;1685151;83;26573;-78
2022/01/04 06:52:05;;;;;;;15.63;9.43;;;;;;;5.11;96.85;99216.52;1683226;83;25901;-78
2022/01/04 06:54:31;;;;;;;16.27;8.18;;;;;;;5.11;96.93;99217.84;1682029;83;26387;-79
2022/01/04 06:56:58;;;;;;;16.50;8.98;;;;;;;5.12;96.97;99209.39;1682611;83;25924;-78
2022/01/04 06:59:24;;;;;;;19.42;8.83;;;;;;;5.14;97.00;99204.72;1683319;83;27470;-78
2022/01/04 07:01:50;;;;;;;17.73;8.38;;;;;;;5.15;97.07;99213.02;1684269;83;25834;-79
2022/01/04 07:04:16;;;;;;;19.30;9.48;;;;;;;5.15;97.19;99213.84;1681767;83;25887;-78
2022/01/04 07:06:43;;;;;;;18.20;8.95;;;;;;;5.16;97.32;99212.82;1683114;83;26332;-79
2022/01/04 07:09:09;;;;;;;15.50;8.53;;;;;;;5.18;97.49;99208.64;1686145;83;26145;-79
2022/01/04 07:11:37;;;;;;;16.90;8.50;;;;;;;5.19;97.60;99208.48;1685957;83;27454;-78
2022/01/04 07:14:04;;;;;;;14.55;8.20;;;;;;;5.21;97.66;99210.94;1689204;83;25942;-78
2022/01/04 07:16:30;;;;;;;15.23;8.03;;;;;;;5.23;97.76;99204.94;1684288;84;26035;-78
2022/01/04 07:18:57;;;;;;;12.40;7.62;;;;;;;5.25;97.83;99207.73;1688737;83;26602;-79
2022/01/04 07:21:23;;;;;;;17.42;9.25;;;;;;;5.27;98.10;99199.07;1690253;83;25845;-78
2022/01/04 07:23:50;;;;;;;17.37;10.03;;;;;;;5.30;98.17;99197.88;1684996;83;26931;-79
2022/01/04 07:26:17;;;;;;;14.25;7.92;;;;;;;5.33;98.28;99194.83;1685658;83;25810;-78
2022/01/04 07:28:46;;;;;;;16.50;8.35;;;;;;;5.37;98.42;99188.13;1681803;83;25813;-78
2022/01/04 07:31:14;;;;;;;13.22;8.30;;;;;;;5.38;98.45;99185.81;1683850;83;26668;-79
2022/01/04 07:33:41;;;;;;;19.00;8.78;;;;;;;5.41;98.61;99183.59;1690410;83;25878;-79
2022/01/04 07:36:08;;;;;;;14.87;8.28;;;;;;;5.44;98.66;99180.57;1691417;83;27471;-80
2022/01/04 07:38:37;;;;;;;15.20;8.90;;;;;;;5.47;98.82;99172.73;1694638;83;26352;-79
2022/01/04 07:41:05;;;;;;;15.65;9.15;;;;;;;5.52;98.88;99174.83;1690778;83;25905;-79
2022/01/04 07:43:32;;;;;;;15.20;8.10;;;;;;;5.55;98.89;99170.45;1690779;83;25900;-78
2022/01/04 07:46:00;;;;;;;11.88;8.15;;;;;;;5.59;98.89;99169.89;1689814;83;25786;-78
2022/01/04 07:48:26;;;;;;;17.12;9.35;;;;;;;5.63;98.89;99178.29;1688583;83;27459;-79
2022/01/04 07:50:58;;;;;;;17.30;8.73;;;;;;;5.66;98.90;99170.78;1690754;83;26620;-80
2022/01/04 07:53:25;;;;;;;18.48;9.58;;;;;;;5.68;98.87;99170.09;1688872;83;25820;-78
2022/01/04 07:55:51;;;;;;;15.93;8.90;;;;;;;5.70;98.83;99168.06;1673361;83;25850;-79
2022/01/04 07:58:18;;;;;;;14.23;8.95;;;;;;;5.74;98.83;99153.88;1691154;83;25984;-79
2022/01/04 08:00:44;;;;;;;13.85;8.90;;;;;;;5.76;98.85;99145.20;1689062;83;27647;-79
2022/01/04 08:03:11;;;;;;;16.75;9.00;;;;;;;5.79;98.81;99143.51;1694884;83;26614;-80
2022/01/04 08:05:37;;;;;;;14.85;8.93;;;;;;;5.82;98.77;99138.63;1689220;83;25889;-79
2022/01/04 08:08:04;;;;;;;15.65;9.35;;;;;;;5.87;98.77;99139.41;1690182;83;26631;-79
2022/01/04 08:10:31;;;;;;;15.10;9.28;;;;;;;5.90;98.74;99132.40;1689823;84;25845;-80
2022/01/04 08:12:57;;;;;;;17.07;9.93;;;;;;;5.95;98.73;99136.61;1691245;83;28288;-78
2022/01/04 08:15:25;;;;;;;16.10;10.15;;;;;;;5.97;98.65;99134.58;1692005;83;25778;-78
2022/01/04 08:17:52;;;;;;;16.70;10.10;;;;;;;6.01;98.70;99122.54;1697981;83;26487;-78
2022/01/04 08:20:18;;;;;;;21.27;11.35;;;;;;;6.04;98.63;99124.33;1694326;83;25831;-79
2022/01/04 08:22:45;;;;;;;19.80;12.28;;;;;;;6.07;98.67;99111.95;1693906;83;25998;-78
2022/01/04 08:25:11;;;;;;;19.23;11.60;;;;;;;6.09;98.67;99108.59;1693940;83;27537;-79
2022/01/04 08:27:39;;;;;;;21.07;11.78;;;;;;;6.11;98.65;99103.11;1697469;83;26208;-79
2022/01/04 08:30:09;;;;;;;19.35;10.63;;;;;;;6.14;98.66;99110.17;1689998;84;25776;-79
2022/01/04 08:32:37;;;;;;;20.82;11.97;;;;;;;6.17;98.73;99097.01;1690186;84;25964;-78
2022/01/04 08:35:06;;;;;;;21.77;11.93;;;;;;;6.21;98.71;99097.76;1697032;83;26469;-79
2022/01/04 08:37:33;;;;;;;20.12;11.83;;;;;;;6.24;98.66;99096.55;1695526;83;26931;-79
2022/01/04 08:39:59;;;;;;;23.10;11.85;;;;;;;6.27;98.62;99086.01;1695058;83;25941;-79
2022/01/04 08:42:25;;;;;;;17.90;11.57;;;;;;;6.29;98.56;99091.98;1692988;84;25797;-78
2022/01/04 08:44:55;;;;;;;19.40;11.80;;;;;;;6.32;98.63;99089.73;1693437;83;26607;-78
2022/01/04 08:47:21;;;;;;;19.73;10.95;;;;;;;6.33;98.63;99089.23;1699662;83;25591;-78
2022/01/04 08:49:47;;;;;;;116.05;42.90;;;;;;;6.36;98.63;99078.19;1696867;83;27556;-79
2022/01/04 08:52:14;;;;;;;40.35;21.00;;;;;;;6.37;98.58;99080.67;1695951;83;25758;-79
2022/01/04 08:54:41;;;;;;;19.55;12.15;;;;;;;6.38;98.56;99078.31;1696915;83;25654;-79
2022/01/04 08:57:07;;;;;;;19.12;12.80;;;;;;;6.40;98.58;99078.93;1693253;83;25786;-79
2022/01/04 08:59:33;;;;;;;18.07;10.60;;;;;;;6.42;98.63;99066.76;1692290;83;25823;-79
2022/01/04 09:02:00;;;;;;;15.18;9.95;;;;;;;6.45;98.67;99057.06;1696533;83;27529;-80
2022/01/04 09:04:26;;;;;;;17.07;10.28;;;;;;;6.47;98.59;99058.52;1692205;84;26615;-79
2022/01/04 09:06:53;;;;;;;14.80;10.10;;;;;;;6.50;98.65;99046.13;1697512;83;25839;-78
2022/01/04 09:09:20;;;;;;;18.10;10.85;;;;;;;6.55;98.66;99046.88;1693333;84;25934;-79
2022/01/04 09:11:46;;;;;;;16.90;10.20;;;;;;;6.58;98.57;99053.97;1692869;84;26659;-79
2022/01/04 09:14:24;;;;;;;16.57;10.90;;;;;;;6.60;98.58;99057.25;1693477;84;27460;-79
2022/01/04 09:19:28;;;;;;;16.42;9.58;;;;;;;6.64;98.67;99053.16;1701960;83;25811;-79
2022/01/04 09:21:56;;;;;;;16.95;9.15;;;;;;;6.68;98.72;99044.27;1693473;83;26439;-78
2022/01/04 09:24:22;;;;;;;17.60;10.38;;;;;;;6.71;98.72;99047.37;1697530;83;25772;-79
2022/01/04 09:26:48;;;;;;;15.30;9.78;;;;;;;6.75;98.68;99047.78;1698774;83;28271;-79
2022/01/04 09:29:19;;;;;;;18.48;10.20;;;;;;;6.78;98.78;99026.07;1693233;84;26570;-79
2022/01/04 09:31:51;;;;;;;20.02;10.48;;;;;;;6.81;98.75;99029.17;1706954;83;25905;-78
2022/01/04 09:34:18;;;;;;;19.30;9.95;;;;;;;6.84;98.80;99035.41;1696777;83;26429;-79
2022/01/04 09:36:44;;;;;;;17.15;10.55;;;;;;;6.86;98.78;99026.70;1696557;83;26074;-79
2022/01/04 09:39:15;;;;;;;16.10;9.65;;;;;;;6.91;98.82;99022.94;1695571;83;27480;-79
2022/01/04 09:41:42;;;;;;;15.48;10.08;;;;;;;6.94;98.62;99019.89;1702989;83;26559;-79
2022/01/04 09:44:11;;;;;;;19.57;10.10;;;;;;;6.99;98.76;99010.77;1693677;84;25292;-78
2022/01/04 09:46:39;;;;;;;16.93;10.43;;;;;;;7.05;98.75;99014.98;1693972;83;26616;-79
2022/01/04 09:49:06;;;;;;;16.37;11.05;;;;;;;7.08;98.59;99017.25;1697802;83;25839;-78
2022/01/04 09:51:33;;;;;;;12.00;8.98;;;;;;;7.11;98.59;99015.00;1699410;83;27533;-79
2022/01/04 09:53:59;;;;;;;15.78;9.98;;;;;;;7.13;98.49;99007.63;1672965;84;26004;-79
2022/01/04 09:56:25;;;;;;;18.70;11.45;;;;;;;7.16;98.41;99004.57;1692788;84;25929;-79
2022/01/04 09:58:52;;;;;;;14.85;9.60;;;;;;;7.19;98.44;99001.48;1695347;83;25925;-78
2022/01/04 10:01:25;;;;;;;15.93;9.85;;;;;;;7.22;98.35;98989.61;1696567;83;25876;-78
2022/01/04 10:03:52;;;;;;;14.65;8.95;;;;;;;7.24;98.27;98995.55;1702133;83;28326;-79
2022/01/04 10:06:19;;;;;;;12.47;9.70;;;;;;;7.25;98.31;98986.02;1694652;84;25278;-79
2022/01/04 10:09:00;;;;;;;13.50;9.05;;;;;;;7.30;98.36;98970.25;1669421;84;25584;-79
2022/01/04 10:11:39;;;;;;;13.95;9.05;;;;;;;7.30;98.24;98964.92;1639872;86;25970;-78
2022/01/04 10:14:31;;;;;;;12.85;8.83;;;;;;;7.32;98.38;98955.39;1692601;84;25883;-79
2022/01/04 10:17:02;;;;;;;12.60;8.25;;;;;;;7.33;98.28;98951.20;1670116;84;27455;-78
2022/01/04 10:19:38;;;;;;;16.87;9.88;;;;;;;7.34;98.29;98951.50;1691899;84;25797;-76
2022/01/04 10:22:24;;;;;;;10.60;7.87;;;;;;;7.37;98.40;98948.94;1695462;83;26131;-78
2022/01/04 10:25:05;;;;;;;13.22;8.35;;;;;;;7.39;98.39;98961.03;1697137;83;25817;-79
2022/01/04 10:27:40;;;;;;;15.60;8.73;;;;;;;7.40;98.40;98952.53;1696274;83;25383;-78
2022/01/04 10:30:27;;;;;;;15.05;8.58;;;;;;;7.41;98.41;98952.32;1699622;83;28026;-79
2022/01/04 10:33:12;;;;;;;17.80;9.23;;;;;;;7.42;98.35;98952.61;1696837;83;25877;-79
2022/01/04 10:35:52;;;;;;;17.67;9.98;;;;;;;7.42;98.46;98952.61;1693806;83;26477;-79
2022/01/04 10:38:29;;;;;;;17.80;10.23;;;;;;;7.44;98.60;98946.56;1697748;83;25855;-79
2022/01/04 10:41:05;;;;;;;14.85;9.23;;;;;;;7.46;98.60;98941.05;1701231;83;25832;-79
2022/01/04 10:44:00;;;;;;;11.38;8.60;;;;;;;7.46;98.54;98933.85;1671111;84;28232;-79
2022/01/04 10:46:38;;;;;;;15.55;9.60;;;;;;;7.45;98.51;98928.74;1660442;85;25924;-78
2022/01/04 10:49:18;;;;;;;13.98;8.40;;;;;;;7.44;98.57;98924.45;1655154;86;26510;-78
2022/01/04 10:51:48;;;;;;;14.63;9.80;;;;;;;7.45;98.69;98928.23;1656096;85;25872;-79
2022/01/04 10:54:18;;;;;;;15.20;9.60;;;;;;;7.46;98.72;98922.41;1661609;84;26428;-78
2022/01/04 10:56:46;;;;;;;14.00;9.18;;;;;;;7.48;98.83;98912.36;1650869;86;27561;-78
2022/01/04 10:59:13;;;;;;;17.87;9.65;;;;;;;7.48;98.88;98910.52;1649769;86;25818;-79
2022/01/04 11:01:47;;;;;;;14.30;8.55;;;;;;;7.50;98.96;98906.30;1629986;86;25882;-79
2022/01/04 11:04:17;;;;;;;15.43;9.35;;;;;;;7.51;99.08;98900.76;1656794;85;26537;-78
2022/01/04 11:06:44;;;;;;;16.75;10.15;;;;;;;7.57;99.25;98903.91;1639816;86;25958;-79
2022/01/04 11:09:12;;;;;;;16.40;9.55;;;;;;;7.59;99.17;98900.53;1656129;85;27508;-79
2022/01/04 11:11:40;;;;;;;17.30;10.93;;;;;;;7.60;99.13;98896.85;1664871;84;26011;-79
2022/01/04 11:14:10;;;;;;;15.38;10.63;;;;;;;7.59;99.05;98888.54;1661917;85;25913;-78
2022/01/04 11:16:37;;;;;;;19.05;11.38;;;;;;;7.57;98.96;98886.59;1656268;85;25850;-80
2022/01/04 11:19:04;;;;;;;18.80;11.28;;;;;;;7.54;98.95;98884.38;1660426;85;26594;-79
2022/01/04 11:21:35;;;;;;;17.35;11.25;;;;;;;7.56;99.06;98874.83;1656254;85;28277;-78
2022/01/04 11:24:04;;;;;;;;;;;;;;;7.55;99.00;98855.35;1661822;85;25915;-79
2022/01/04 11:26:31;;;;;;;17.82;12.07;;;;;;;7.56;99.07;98862.33;1656908;85;25941;-79
2022/01/04 11:28:58;;;;;;;18.77;13.00;;;;;;;7.55;99.21;98851.86;1657544;85;25835;-79
2022/01/04 11:32:01;;;;;;;18.23;11.97;;;;;;;7.54;99.16;98847.07;1657350;85;25894;-78
2022/01/04 11:34:48;;;;;;;19.70;13.95;;;;;;;7.53;99.06;98847.26;1655090;85;28507;-78
2022/01/04 11:37:19;;;;;;;21.12;13.62;;;;;;;7.54;99.32;98837.75;1647582;85;26130;-79
2022/01/04 11:39:46;;;;;;;20.23;12.68;;;;;;;7.54;99.33;98833.75;1646572;86;26645;-78
2022/01/04 11:42:36;;;;;;;19.60;12.23;;;;;;;7.54;99.21;98826.27;1651855;85;25827;-79